Time;durP1;ratioP1;P1;durP2;ratioP2;P2;SDS_P1;SDS_P2;PMS_P1;PMS_P2;Temp;Humidity;BMP_temperature;BMP_pressure;BME280_temperature;BME280_humidity;BME280_pressure;Samples;Min_cycle;Max_cycle;Signal;HPM_P1;HPM_P2
2021/03/08 00:02:26;;;;;;;12.15;10.10;;;2.60;52.10;;;;;;5003805;28;20033;-70
2021/03/08 00:04:52;;;;;;;12.40;10.60;;;2.60;52.10;;;;;;5003831;28;20461;-70
2021/03/08 00:07:18;;;;;;;15.43;10.43;;;2.60;52.10;;;;;;5003794;28;20026;-70
2021/03/08 00:09:44;;;;;;;14.52;10.93;;;2.60;52.10;;;;;;5004424;28;20099;-70
2021/03/08 00:12:10;;;;;;;12.98;10.38;;;2.60;52.10;;;;;;5003414;28;20603;-69
2021/03/08 00:14:36;;;;;;;12.68;10.02;;;2.60;52.20;;;;;;5003067;28;20073;-69
2021/03/08 00:17:04;;;;;;;13.57;10.10;;;2.60;52.20;;;;;;5003834;28;20384;-69
2021/03/08 00:19:30;;;;;;;15.70;10.25;;;2.70;52.50;;;;;;5004308;28;20112;-69
2021/03/08 00:21:56;;;;;;;16.73;10.70;;;2.70;52.40;;;;;;5005132;28;20394;-69
2021/03/08 00:24:22;;;;;;;12.18;10.88;;;2.70;52.40;;;;;;5004820;28;20049;-69
2021/03/08 00:26:48;;;;;;;12.80;10.95;;;2.70;52.40;;;;;;5004869;28;20041;-69
2021/03/08 00:29:14;;;;;;;10.98;9.32;;;2.70;52.40;;;;;;5005187;28;20056;-69
2021/03/08 00:31:40;;;;;;;14.00;11.35;;;2.70;52.40;;;;;;5002731;28;20488;-69
2021/03/08 00:34:06;;;;;;;13.52;10.98;;;2.70;52.30;;;;;;5002636;28;20029;-69
2021/03/08 00:36:33;;;;;;;12.57;10.85;;;2.80;52.50;;;;;;4986774;28;20045;-69
2021/03/08 00:38:58;;;;;;;12.88;10.25;;;2.70;52.30;;;;;;5003301;28;20388;-69
2021/03/08 00:41:24;;;;;;;11.02;9.93;;;2.80;52.50;;;;;;5004562;28;20033;-69
2021/03/08 00:43:50;;;;;;;12.55;10.00;;;2.80;52.50;;;;;;5003124;28;20034;-69
2021/03/08 00:46:16;;;;;;;15.30;11.20;;;2.80;52.50;;;;;;5004828;28;20033;-69
2021/03/08 00:48:42;;;;;;;12.82;10.75;;;2.80;52.50;;;;;;5004400;28;20030;-69
2021/03/08 00:51:08;;;;;;;12.68;11.27;;;2.80;52.50;;;;;;5002892;28;20042;-68
2021/03/08 00:53:34;;;;;;;13.60;10.15;;;2.80;52.50;;;;;;5004423;28;20034;-68
2021/03/08 00:56:00;;;;;;;12.57;10.48;;;2.80;52.50;;;;;;5003142;28;20164;-69
2021/03/08 00:58:27;;;;;;;12.82;10.60;;;2.90;52.70;;;;;;5005369;28;20080;-69
2021/03/08 01:00:53;;;;;;;15.85;10.55;;;2.80;52.40;;;;;;5002253;28;20038;-69
2021/03/08 01:03:19;;;;;;;13.63;10.95;;;2.90;52.60;;;;;;5002799;28;20392;-69
2021/03/08 01:05:51;;;;;;;12.75;10.80;;;2.90;52.60;;;;;;5002919;28;20033;-69
2021/03/08 01:08:29;;;;;;;13.32;11.43;;;2.90;52.70;;;;;;5003015;28;20098;-69
2021/03/08 01:10:55;;;;;;;12.15;10.45;;;2.90;52.70;;;;;;5003457;28;20596;-69
2021/03/08 01:13:28;;;;;;;14.00;10.60;;;2.90;52.60;;;;;;5004037;28;20373;-69
2021/03/08 01:15:54;;;;;;;16.42;10.80;;;2.90;52.70;;;;;;5003269;28;20099;-69
2021/03/08 01:18:21;;;;;;;15.88;10.73;;;3.00;52.80;;;;;;5002671;28;20251;-70
2021/03/08 01:20:48;;;;;;;13.07;10.10;;;3.00;52.80;;;;;;5003134;28;20057;-70
2021/03/08 01:23:14;;;;;;;15.00;10.85;;;3.00;52.80;;;;;;5004499;28;20109;-70
2021/03/08 01:25:43;;;;;;;15.93;10.98;;;3.00;52.80;;;;;;5003271;28;20046;-70
2021/03/08 01:28:09;;;;;;;13.98;11.05;;;3.00;52.80;;;;;;4986286;28;20057;-69
2021/03/08 01:30:39;;;;;;;12.63;11.25;;;3.10;53.00;;;;;;5004026;28;20034;-69
2021/03/08 01:33:06;;;;;;;14.55;10.60;;;3.00;52.80;;;;;;5002779;28;20327;-69
2021/03/08 01:35:33;;;;;;;13.55;10.38;;;3.00;52.80;;;;;;5002755;28;20034;-69
2021/03/08 01:37:59;;;;;;;13.60;11.07;;;3.00;52.80;;;;;;5002647;28;20037;-69
2021/03/08 01:40:27;;;;;;;16.75;11.18;;;3.00;52.80;;;;;;5004345;28;20033;-69
2021/03/08 01:42:54;;;;;;;13.75;11.70;;;3.10;53.00;;;;;;5002959;28;20156;-68
2021/03/08 01:45:21;;;;;;;11.35;10.15;;;3.10;53.00;;;;;;5005694;28;20040;-69
2021/03/08 01:47:49;;;;;;;13.35;11.05;;;3.10;53.00;;;;;;5008125;28;20030;-69
2021/03/08 01:50:37;;;;;;;12.00;10.73;;;3.10;53.00;;;;;;5007367;28;20030;-68
2021/03/08 01:53:06;;;;;;;13.65;11.27;;;3.10;53.00;;;;;;5006590;28;20446;-69
2021/03/08 01:55:33;;;;;;;13.13;10.63;;;3.10;53.00;;;;;;5008042;28;20065;-69
2021/03/08 01:57:59;;;;;;;15.75;10.70;;;3.10;53.00;;;;;;5007782;28;20097;-69
2021/03/08 02:00:27;;;;;;;12.60;10.43;;;3.10;53.00;;;;;;5006761;28;20040;-68
2021/03/08 02:02:53;;;;;;;14.60;11.35;;;3.10;53.00;;;;;;5021359;28;20116;-68
2021/03/08 02:05:23;;;;;;;14.15;12.23;;;3.10;53.10;;;;;;5007203;28;20102;-69
2021/03/08 02:07:50;;;;;;;10.90;9.77;;;3.10;53.00;;;;;;5006344;28;20484;-68
2021/03/08 02:10:17;;;;;;;16.75;11.48;;;3.10;53.00;;;;;;5007078;28;20208;-69
2021/03/08 02:12:46;;;;;;;15.60;11.20;;;3.20;53.30;;;;;;5006982;28;20117;-69
2021/03/08 02:15:36;;;;;;;16.98;12.98;;;3.20;53.20;;;;;;5006117;28;20463;-69
2021/03/08 02:18:21;;;;;;;16.55;12.75;;;3.10;53.00;;;;;;5007399;28;20084;-69
2021/03/08 02:21:17;;;;;;;15.40;12.88;;;3.20;53.20;;;;;;5007065;28;20475;-68
2021/03/08 02:24:07;;;;;;;18.88;13.25;;;3.20;53.20;;;;;;5005901;28;20041;-69
2021/03/08 02:26:46;;;;;;;12.45;11.18;;;3.20;53.20;;;;;;5005960;28;20048;-69
2021/03/08 02:29:40;;;;;;;18.70;13.23;;;3.20;53.20;;;;;;5005778;28;20476;-69
2021/03/08 02:32:09;;;;;;;15.20;12.65;;;3.20;53.20;;;;;;5037159;22;20060;-81
2021/03/08 02:34:42;;;;;;;17.48;13.00;;;3.20;53.20;;;;;;5028554;28;20026;-80
2021/03/08 02:37:22;;;;;;;18.08;12.80;;;3.20;53.20;;;;;;5028685;28;20476;-80
2021/03/08 02:39:59;;;;;;;20.45;14.52;;;3.20;53.20;;;;;;5016792;28;20026;-80
2021/03/08 02:42:29;;;;;;;17.75;13.77;;;3.20;53.20;;;;;;5024316;28;20369;-78
2021/03/08 02:44:59;;;;;;;18.73;15.10;;;3.20;53.20;;;;;;5008172;28;20026;-80
2021/03/08 02:47:27;;;;;;;16.35;14.35;;;3.20;53.20;;;;;;5027866;23;20092;-84
2021/03/08 02:49:56;;;;;;;18.23;15.30;;;3.20;53.20;;;;;;5029182;28;20049;-85
2021/03/08 02:52:25;;;;;;;17.33;13.82;;;3.30;53.40;;;;;;5028705;28;20061;-82
2021/03/08 02:54:54;;;;;;;18.65;14.90;;;3.30;53.40;;;;;;5027888;28;20104;-83
2021/03/08 02:57:25;;;;;;;18.25;14.48;;;3.30;53.50;;;;;;5012569;28;21754;-82
2021/03/08 02:59:54;;;;;;;19.30;14.80;;;3.30;53.40;;;;;;4995449;28;20026;-84
2021/03/08 03:02:22;;;;;;;16.98;14.68;;;3.30;53.50;;;;;;5011462;28;20033;-82
2021/03/08 03:04:49;;;;;;;16.95;14.48;;;3.30;53.40;;;;;;5011441;28;20547;-83
2021/03/08 03:07:17;;;;;;;19.33;14.85;;;3.40;53.60;;;;;;4995013;28;20095;-84
2021/03/08 03:09:45;;;;;;;17.48;14.73;;;3.30;53.40;;;;;;5011136;28;20029;-84
2021/03/08 03:12:12;;;;;;;15.57;13.85;;;3.30;53.40;;;;;;4994631;28;20157;-84
2021/03/08 03:14:41;;;;;;;15.43;13.35;;;3.30;53.40;;;;;;4994592;28;20111;-84
2021/03/08 03:17:14;;;;;;;17.55;13.48;;;3.30;53.40;;;;;;4994619;28;20038;-85
2021/03/08 03:19:44;;;;;;;17.70;14.55;;;3.40;53.60;;;;;;5027932;28;20025;-83
2021/03/08 03:22:12;;;;;;;19.25;14.30;;;3.30;53.50;;;;;;4994997;28;20042;-82
2021/03/08 03:24:39;;;;;;;16.45;14.52;;;3.40;53.60;;;;;;5011500;28;20025;-83
2021/03/08 03:27:06;;;;;;;16.25;14.02;;;3.40;53.60;;;;;;4995271;28;20044;-82
2021/03/08 03:29:37;;;;;;;14.93;12.85;;;3.40;53.70;;;;;;5010934;28;20030;-83
2021/03/08 03:32:04;;;;;;;16.20;14.23;;;3.40;53.70;;;;;;5011171;28;20140;-84
2021/03/08 03:34:31;;;;;;;15.88;13.75;;;3.40;53.70;;;;;;5010767;28;20034;-85
2021/03/08 03:36:59;;;;;;;16.23;14.13;;;3.40;53.70;;;;;;5011083;28;20137;-83
2021/03/08 03:39:25;;;;;;;15.70;13.50;;;3.40;53.70;;;;;;5011530;28;20080;-86
2021/03/08 03:41:52;;;;;;;14.43;12.98;;;3.40;53.70;;;;;;5011011;28;20030;-84
2021/03/08 03:44:18;;;;;;;17.23;14.10;;;3.40;53.70;;;;;;5027582;28;20030;-85
2021/03/08 03:46:48;;;;;;;15.93;13.65;;;3.40;53.70;;;;;;4978376;28;20501;-84
2021/03/08 03:49:15;;;;;;;15.80;13.57;;;3.40;53.70;;;;;;5010971;28;20125;-83
2021/03/08 03:51:42;;;;;;;17.30;13.50;;;3.40;53.70;;;;;;5027033;28;20088;-83
2021/03/08 03:54:09;;;;;;;19.70;13.98;;;3.40;53.70;;;;;;5010847;28;20030;-83
2021/03/08 03:56:39;;;;;;;15.93;12.95;;;3.40;53.70;;;;;;5010555;28;20030;-82
2021/03/08 03:59:33;;;;;;;15.18;13.57;;;3.40;53.70;;;;;;5010241;28;20151;-84
2021/03/08 04:02:00;;;;;;;15.90;14.10;;;3.40;53.70;;;;;;5008475;28;20421;-86
2021/03/08 04:04:51;;;;;;;15.00;13.48;;;3.50;53.90;;;;;;4995190;28;20492;-83
2021/03/08 04:07:19;;;;;;;16.48;14.30;;;3.40;53.70;;;;;;4994633;28;20044;-82
2021/03/08 04:09:54;;;;;;;17.02;14.63;;;3.50;53.90;;;;;;5010261;28;20030;-87
2021/03/08 04:12:29;;;;;;;15.48;13.52;;;3.50;53.90;;;;;;4993976;28;20032;-82
2021/03/08 04:15:00;;;;;;;14.80;12.98;;;3.50;53.90;;;;;;4994181;28;20033;-85
2021/03/08 04:17:27;;;;;;;15.50;13.18;;;3.50;53.90;;;;;;4993896;28;20083;-82
2021/03/08 04:19:55;;;;;;;18.33;13.43;;;3.50;53.90;;;;;;4990345;28;20510;-84
2021/03/08 04:22:25;;;;;;;17.00;12.75;;;3.40;53.70;;;;;;5006962;28;20037;-82
2021/03/08 04:24:55;;;;;;;18.80;13.75;;;3.50;53.90;;;;;;4974630;28;20041;-85
2021/03/08 04:27:23;;;;;;;14.85;13.27;;;3.50;54.00;;;;;;4991283;28;20031;-85
2021/03/08 04:29:49;;;;;;;14.85;13.25;;;3.50;53.90;;;;;;4992082;28;20042;-84
2021/03/08 04:32:17;;;;;;;17.10;13.68;;;3.50;54.00;;;;;;5007286;28;20410;-84
2021/03/08 04:34:44;;;;;;;16.38;14.23;;;3.50;54.00;;;;;;5007444;28;20125;-86
2021/03/08 04:37:15;;;;;;;15.60;13.32;;;3.50;54.00;;;;;;5006851;28;20661;-82
2021/03/08 04:39:43;;;;;;;16.50;13.95;;;3.50;54.00;;;;;;5006671;28;20455;-84
2021/03/08 04:42:10;;;;;;;18.58;14.25;;;3.50;54.00;;;;;;5006002;28;20038;-82
2021/03/08 04:44:39;;;;;;;16.92;12.48;;;3.50;54.00;;;;;;4990304;28;20494;-83
2021/03/08 04:47:07;;;;;;;16.25;13.07;;;3.50;54.00;;;;;;4989917;28;20065;-83
2021/03/08 04:49:34;;;;;;;16.83;14.23;;;3.50;54.00;;;;;;4990023;28;20544;-85
2021/03/08 04:52:00;;;;;;;15.10;13.25;;;3.50;54.00;;;;;;4990155;28;20049;-82
2021/03/08 04:54:27;;;;;;;15.65;13.80;;;3.50;54.00;;;;;;4991197;28;20121;-84
2021/03/08 04:56:55;;;;;;;17.13;13.73;;;3.50;54.00;;;;;;4989454;28;20110;-84
2021/03/08 04:59:24;;;;;;;14.77;13.23;;;3.50;54.00;;;;;;5005982;28;20109;-84
2021/03/08 05:01:53;;;;;;;17.25;13.68;;;3.50;54.10;;;;;;5008603;28;20524;-85
2021/03/08 05:04:21;;;;;;;14.70;13.25;;;3.50;54.00;;;;;;4993064;28;20473;-84
2021/03/08 05:06:49;;;;;;;15.73;14.00;;;3.50;54.00;;;;;;5009952;28;20037;-83
2021/03/08 05:09:16;;;;;;;17.38;13.82;;;3.50;54.00;;;;;;5010606;28;20169;-84
2021/03/08 05:11:45;;;;;;;15.90;13.30;;;3.50;54.00;;;;;;5009779;28;20114;-84
2021/03/08 05:14:16;;;;;;;18.40;14.23;;;3.50;54.10;;;;;;5009342;28;20124;-84
2021/03/08 05:16:44;;;;;;;17.30;13.45;;;3.50;54.10;;;;;;5009076;28;20612;-85
2021/03/08 05:19:12;;;;;;;14.25;12.77;;;3.50;54.10;;;;;;5013922;28;20040;-82
2021/03/08 05:21:38;;;;;;;16.67;13.52;;;3.50;54.10;;;;;;4997625;28;20034;-84
2021/03/08 05:24:07;;;;;;;16.98;13.35;;;3.50;54.10;;;;;;5015702;28;20037;-85
2021/03/08 05:26:35;;;;;;;16.77;14.93;;;3.50;54.20;;;;;;5014985;28;20042;-86
2021/03/08 05:29:02;;;;;;;17.27;13.65;;;3.50;54.10;;;;;;5014048;28;20096;-84
2021/03/08 05:31:32;;;;;;;17.17;14.75;;;3.50;54.10;;;;;;5013865;28;20033;-82
2021/03/08 05:34:02;;;;;;;19.15;15.25;;;3.60;54.30;;;;;;4997590;28;20198;-85
2021/03/08 05:36:31;;;;;;;19.00;14.38;;;3.60;54.30;;;;;;5015290;28;20457;-82
2021/03/08 05:38:57;;;;;;;16.95;15.23;;;3.60;54.30;;;;;;4997000;28;20124;-83
2021/03/08 05:41:33;;;;;;;16.60;14.02;;;3.60;54.30;;;;;;5013753;28;20168;-83
2021/03/08 05:44:03;;;;;;;18.13;15.18;;;3.60;54.30;;;;;;5014412;28;20234;-84
2021/03/08 05:47:10;;;;;;;17.20;15.02;;;3.60;54.30;;;;;;4996825;28;20145;-83
2021/03/08 05:50:13;;;;;;;16.85;14.57;;;3.60;54.30;;;;;;4990774;28;20363;-83
2021/03/08 05:52:48;;;;;;;17.73;14.82;;;3.50;54.10;;;;;;4991065;28;20036;-83
2021/03/08 05:55:33;;;;;;;16.38;14.48;;;3.60;54.20;;;;;;4974703;28;20042;-84
2021/03/08 05:57:59;;;;;;;15.75;13.38;;;3.60;54.20;;;;;;4977796;28;20437;-82
2021/03/08 06:00:54;;;;;;;18.65;14.77;;;3.60;54.30;;;;;;5009435;28;20030;-82
2021/03/08 06:03:38;;;;;;;;;;;3.60;54.30;;;;;;4993837;28;20034;-83
2021/03/08 06:06:38;;;;;;;15.93;13.48;;;3.60;54.20;;;;;;5005245;28;19996;-84
2021/03/08 06:09:21;;;;;;;18.17;15.15;;;3.60;54.20;;;;;;5002213;28;20042;-84
2021/03/08 06:11:53;;;;;;;17.15;13.93;;;3.60;54.20;;;;;;5008778;28;20038;-84
2021/03/08 06:14:27;;;;;;;19.73;14.10;;;3.60;54.20;;;;;;4992216;28;20037;-84
2021/03/08 06:16:54;;;;;;;18.48;15.27;;;3.60;54.20;;;;;;4991939;28;20060;-85
2021/03/08 06:19:22;;;;;;;19.15;16.92;;;3.60;54.20;;;;;;4992231;28;20030;-84
2021/03/08 06:21:49;;;;;;;19.90;16.25;;;3.60;54.30;;;;;;5009368;28;20453;-85
2021/03/08 06:24:16;;;;;;;21.98;15.68;;;3.60;54.30;;;;;;5009359;28;20030;-81
2021/03/08 06:26:45;;;;;;;17.73;15.15;;;3.70;54.50;;;;;;5009230;28;20022;-84
2021/03/08 06:29:12;;;;;;;17.67;15.07;;;3.70;54.50;;;;;;5008820;28;20088;-82
2021/03/08 06:31:39;;;;;;;19.00;16.00;;;3.70;54.50;;;;;;4993898;28;20054;-85
2021/03/08 06:34:05;;;;;;;23.13;16.10;;;3.60;54.40;;;;;;5010617;28;20481;-87
2021/03/08 06:36:33;;;;;;;21.35;15.80;;;3.70;54.60;;;;;;5012652;28;20172;-85
2021/03/08 06:38:59;;;;;;;18.92;15.60;;;3.70;54.60;;;;;;5012635;28;20501;-86
2021/03/08 06:41:25;;;;;;;17.98;15.20;;;3.70;54.60;;;;;;4997372;28;20030;-84
2021/03/08 06:43:51;;;;;;;20.20;14.73;;;3.70;54.60;;;;;;5012248;28;20044;-87
2021/03/08 06:46:20;;;;;;;19.48;17.38;;;3.70;54.60;;;;;;4996494;28;20042;-85
2021/03/08 06:48:46;;;;;;;23.77;17.48;;;3.70;54.60;;;;;;5013021;28;20117;-86
2021/03/08 06:51:18;;;;;;;18.33;15.52;;;3.70;54.60;;;;;;5010843;28;20155;-82
2021/03/08 06:53:46;;;;;;;21.83;17.95;;;3.70;54.80;;;;;;5009462;28;20119;-88
2021/03/08 06:56:25;;;;;;;22.77;17.17;;;3.70;55.00;;;;;;4995862;28;20073;-85
2021/03/08 06:59:08;;;;;;;19.45;17.42;;;3.80;55.30;;;;;;5009543;28;20046;-83
2021/03/08 07:01:39;;;;;;;22.33;17.05;;;3.90;55.60;;;;;;5007251;28;20030;-84
2021/03/08 07:04:17;;;;;;;21.50;17.10;;;3.90;55.60;;;;;;5008982;28;20026;-86
2021/03/08 07:07:02;;;;;;;20.13;16.85;;;3.90;55.80;;;;;;4992854;28;20133;-83
2021/03/08 07:09:29;;;;;;;19.13;17.08;;;4.00;55.90;;;;;;4991972;28;20037;-85
2021/03/08 07:12:12;;;;;;;20.02;16.88;;;4.10;56.20;;;;;;5002322;28;20033;-85
2021/03/08 07:14:39;;;;;;;22.88;19.02;;;4.20;56.60;;;;;;4990488;28;20038;-84
2021/03/08 07:17:35;;;;;;;21.98;17.23;;;4.20;56.50;;;;;;5006916;28;20125;-84
2021/03/08 07:20:04;;;;;;;25.45;18.88;;;4.20;56.70;;;;;;5005914;28;20077;-83
2021/03/08 07:22:43;;;;;;;22.98;18.95;;;4.30;56.90;;;;;;5007833;28;20037;-85
2021/03/08 07:25:28;;;;;;;24.23;19.58;;;4.30;57.00;;;;;;4991797;28;20435;-85
2021/03/08 07:27:59;;;;;;;22.58;19.77;;;4.40;57.30;;;;;;4994011;28;20034;-87
2021/03/08 07:30:31;;;;;;;26.48;19.63;;;4.50;57.50;;;;;;5007450;28;20424;-85
2021/03/08 07:33:12;;;;;;;23.38;19.95;;;4.50;57.70;;;;;;4992942;28;20073;-84
2021/03/08 07:35:46;;;;;;;26.17;20.90;;;4.60;58.00;;;;;;5009164;28;20061;-84
2021/03/08 07:38:27;;;;;;;28.25;21.90;;;4.70;58.30;;;;;;5008764;28;20088;-83
2021/03/08 07:41:08;;;;;;;27.33;21.65;;;4.70;58.20;;;;;;4992685;28;20786;-84
2021/03/08 07:43:34;;;;;;;24.75;21.10;;;4.80;58.60;;;;;;5008297;28;20038;-88
2021/03/08 07:46:00;;;;;;;23.45;20.20;;;4.90;58.70;;;;;;4991329;28;20069;-85
2021/03/08 07:48:26;;;;;;;27.45;22.70;;;5.00;59.00;;;;;;4990720;28;20032;-84
2021/03/08 07:50:53;;;;;;;24.15;20.90;;;5.10;59.30;;;;;;5007105;28;20513;-85
2021/03/08 07:53:36;;;;;;;24.65;20.77;;;5.10;59.40;;;;;;5007346;28;20315;-85
2021/03/08 07:56:08;;;;;;;23.85;20.38;;;5.20;59.80;;;;;;5002535;28;20476;-84
2021/03/08 07:58:37;;;;;;;26.48;21.70;;;5.30;59.90;;;;;;5006263;28;20034;-86
2021/03/08 08:01:08;;;;;;;24.50;20.65;;;5.40;60.00;;;;;;5006730;28;20128;-84
2021/03/08 08:03:38;;;;;;;21.67;19.42;;;5.50;60.30;;;;;;5006093;28;20026;-84
2021/03/08 08:06:10;;;;;;;26.20;20.90;;;5.60;60.50;;;;;;5008610;28;20030;-84
2021/03/08 08:08:52;;;;;;;26.05;19.85;;;5.60;60.50;;;;;;5009163;28;20069;-85
2021/03/08 08:11:26;;;;;;;25.63;20.10;;;5.80;61.00;;;;;;4991752;28;20493;-86
2021/03/08 08:14:03;;;;;;;24.50;19.58;;;5.80;60.80;;;;;;5000950;28;20030;-85
2021/03/08 08:16:30;;;;;;;23.77;20.85;;;5.90;61.10;;;;;;4989363;28;20525;-85
2021/03/08 08:19:10;;;;;;;25.50;21.17;;;6.00;61.20;;;;;;4991313;28;20045;-84
2021/03/08 08:21:37;;;;;;;24.80;20.33;;;6.10;61.50;;;;;;5009520;28;20040;-82
2021/03/08 08:24:09;;;;;;;25.15;21.77;;;6.20;61.50;;;;;;5006300;28;20038;-83
2021/03/08 08:26:35;;;;;;;28.73;20.90;;;6.30;61.70;;;;;;4966913;28;20033;-83
2021/03/08 08:29:02;;;;;;;23.95;21.10;;;6.40;61.90;;;;;;5007395;28;20034;-84
2021/03/08 08:31:48;;;;;;;26.63;19.67;;;6.50;62.10;;;;;;5007816;28;20623;-85
2021/03/08 08:34:40;;;;;;;23.65;21.00;;;6.60;62.30;;;;;;4991362;28;20030;-86
2021/03/08 08:37:14;;;;;;;26.52;20.17;;;6.70;62.50;;;;;;5008672;28;20041;-86
2021/03/08 08:39:50;;;;;;;22.45;19.92;;;6.80;63.10;;;;;;4991191;28;20065;-84
2021/03/08 08:42:24;;;;;;;23.40;19.90;;;6.90;62.60;;;;;;4990844;28;20034;-86
2021/03/08 08:44:55;;;;;;;20.70;17.95;;;7.00;62.80;;;;;;5008654;28;20045;-85
2021/03/08 08:47:29;;;;;;;23.63;20.88;;;7.10;62.90;;;;;;4992133;28;20149;-87
2021/03/08 08:50:02;;;;;;;23.38;19.88;;;7.20;63.00;;;;;;4991383;28;20093;-85
2021/03/08 08:52:43;;;;;;;23.08;18.88;;;7.30;63.20;;;;;;5005484;28;20039;-85
2021/03/08 08:55:10;;;;;;;21.50;17.92;;;7.40;63.30;;;;;;4989697;28;20036;-84
2021/03/08 08:57:36;;;;;;;23.38;20.58;;;7.50;63.30;;;;;;5008370;28;20041;-83
2021/03/08 09:00:21;;;;;;;20.88;17.95;;;7.60;63.30;;;;;;4990861;28;20040;-86
2021/03/08 09:02:47;;;;;;;20.05;17.77;;;7.80;63.90;;;;;;4989912;28;20030;-84
2021/03/08 09:05:29;;;;;;;19.52;17.10;;;7.90;63.90;;;;;;4990136;28;20030;-83
2021/03/08 09:08:29;;;;;;;19.13;16.58;;;8.00;64.10;;;;;;4992638;28;20040;-85
2021/03/08 09:10:56;;;;;;;19.70;17.15;;;8.10;64.10;;;;;;5023420;28;20111;-86
2021/03/08 09:13:23;;;;;;;21.30;16.75;;;8.30;64.10;;;;;;4982200;28;20042;-86
2021/03/08 09:15:49;;;;;;;20.05;17.95;;;8.40;64.10;;;;;;5022647;28;20037;-84
2021/03/08 09:18:30;;;;;;;22.52;18.90;;;8.40;63.90;;;;;;4990840;28;20401;-85
2021/03/08 09:21:17;;;;;;;31.88;22.58;;;8.60;64.00;;;;;;5006096;28;20184;-85
2021/03/08 09:23:43;;;;;;;32.25;22.20;;;8.60;63.30;;;;;;4990034;28;20029;-82
2021/03/08 09:26:09;;;;;;;32.60;23.80;;;8.50;62.90;;;;;;5006686;28;20040;-84
2021/03/08 09:28:45;;;;;;;27.70;23.40;;;8.50;62.60;;;;;;5005110;28;20030;-85
2021/03/08 09:31:20;;;;;;;29.88;23.48;;;8.50;62.40;;;;;;5006069;28;20037;-85
2021/03/08 09:33:47;;;;;;;28.58;22.90;;;8.40;62.10;;;;;;5006034;28;20041;-84
2021/03/08 09:36:13;;;;;;;29.35;21.52;;;8.40;62.00;;;;;;5005762;28;20135;-84
2021/03/08 09:38:39;;;;;;;27.95;22.27;;;8.30;61.70;;;;;;4988776;28;20034;-86
2021/03/08 09:41:05;;;;;;;32.90;22.63;;;8.30;61.60;;;;;;5007545;28;20029;-83
2021/03/08 09:43:33;;;;;;;27.30;22.95;;;8.30;61.40;;;;;;5005921;28;20034;-85
2021/03/08 09:46:10;;;;;;;36.33;23.50;;;8.20;61.00;;;;;;5008012;28;20126;-86
2021/03/08 09:48:38;;;;;;;29.88;22.40;;;8.20;60.90;;;;;;5006102;28;20038;-84
2021/03/08 09:51:13;;;;;;;31.48;24.38;;;8.10;60.60;;;;;;5006332;28;20496;-82
2021/03/08 09:53:43;;;;;;;27.52;22.70;;;8.10;60.50;;;;;;4990320;28;20034;-85
2021/03/08 09:56:21;;;;;;;30.10;23.90;;;8.00;60.30;;;;;;5006286;28;20493;-83
2021/03/08 09:59:09;;;;;;;32.30;23.33;;;7.90;60.10;;;;;;4989296;28;20100;-83
2021/03/08 10:01:38;;;;;;;30.42;22.98;;;7.80;59.90;;;;;;4988363;28;20072;-83
2021/03/08 10:04:05;;;;;;;27.60;22.05;;;7.70;59.80;;;;;;4987898;28;20121;-82
2021/03/08 10:06:33;;;;;;;33.35;24.30;;;7.70;59.90;;;;;;5007188;28;20084;-81
2021/03/08 10:09:19;;;;;;;28.30;24.27;;;7.60;59.70;;;;;;5007633;28;20034;-82
2021/03/08 10:12:01;;;;;;;31.30;23.00;;;7.60;59.60;;;;;;5007735;28;20116;-82
2021/03/08 10:14:29;;;;;;;31.35;24.98;;;7.60;59.80;;;;;;5007323;28;20038;-82
2021/03/08 10:17:13;;;;;;;28.35;23.60;;;7.60;59.70;;;;;;5008417;28;20030;-85
2021/03/08 10:19:52;;;;;;;30.92;24.60;;;7.60;59.70;;;;;;5008424;28;20034;-82
2021/03/08 10:22:33;;;;;;;30.30;23.75;;;7.60;59.70;;;;;;4993009;28;20037;-84
2021/03/08 10:25:01;;;;;;;32.65;24.77;;;7.60;59.50;;;;;;5008958;28;20022;-87
2021/03/08 10:27:29;;;;;;;30.98;23.83;;;7.60;59.40;;;;;;4992516;28;20355;-83
2021/03/08 10:29:55;;;;;;;34.63;23.52;;;7.60;59.30;;;;;;5008401;28;20038;-83
2021/03/08 10:32:24;;;;;;;34.20;23.83;;;7.70;59.50;;;;;;5006319;28;20362;-84
2021/03/08 10:34:51;;;;;;;33.25;24.15;;;7.70;59.30;;;;;;4989576;28;20042;-86
2021/03/08 10:37:20;;;;;;;34.15;25.20;;;7.80;59.40;;;;;;4990336;28;20194;-85
2021/03/08 10:39:50;;;;;;;27.73;22.90;;;7.80;59.40;;;;;;4991724;28;20040;-84
2021/03/08 10:42:20;;;;;;;33.33;28.38;;;7.90;59.60;;;;;;4993027;28;20041;-85
2021/03/08 10:44:47;;;;;;;33.92;27.27;;;8.00;59.80;;;;;;5009856;28;20534;-84
2021/03/08 10:47:15;;;;;;;33.33;28.45;;;8.00;59.80;;;;;;4984011;28;20050;-85
2021/03/08 10:49:54;;;;;;;30.85;26.85;;;8.10;59.90;;;;;;5006991;28;20042;-86
2021/03/08 10:52:21;;;;;;;37.03;26.00;;;8.20;59.90;;;;;;4991480;28;20045;-85
2021/03/08 10:54:47;;;;;;;34.22;26.17;;;8.30;60.00;;;;;;5007922;28;20090;-84
2021/03/08 10:57:14;;;;;;;30.27;27.02;;;8.40;60.00;;;;;;5008181;28;20034;-83
2021/03/08 10:59:52;;;;;;;30.90;27.10;;;8.50;60.00;;;;;;5008317;28;20566;-86
2021/03/08 11:02:20;;;;;;;32.22;26.17;;;8.50;59.90;;;;;;4992011;28;20050;-83
2021/03/08 11:04:48;;;;;;;30.50;26.98;;;8.50;59.80;;;;;;4992507;28;20095;-84
2021/03/08 11:07:14;;;;;;;30.20;25.83;;;8.60;60.00;;;;;;4992793;28;20454;-84
2021/03/08 11:09:45;;;;;;;30.05;26.85;;;8.70;60.00;;;;;;4992131;28;20462;-85
2021/03/08 11:12:23;;;;;;;29.45;25.70;;;8.80;60.10;;;;;;4993503;28;20026;-84
2021/03/08 11:14:58;;;;;;;28.35;25.00;;;8.90;60.30;;;;;;5012025;28;20026;-86
2021/03/08 11:17:41;;;;;;;32.15;25.33;;;8.90;60.10;;;;;;5015520;28;20109;-85
2021/03/08 11:20:15;;;;;;;31.73;25.67;;;9.00;60.00;;;;;;4999934;28;20091;-84
2021/03/08 11:22:58;;;;;;;33.20;25.70;;;9.20;60.20;;;;;;5016195;28;20117;-75
2021/03/08 11:25:25;;;;;;;27.40;24.45;;;9.20;60.00;;;;;;4981177;28;20045;-79
2021/03/08 11:27:51;;;;;;;30.23;25.02;;;9.30;60.00;;;;;;4996342;28;20049;-80
2021/03/08 11:30:18;;;;;;;32.10;25.73;;;9.40;60.10;;;;;;5013013;28;20038;-79
2021/03/08 11:32:50;;;;;;;29.75;25.02;;;9.50;60.20;;;;;;5005750;28;20037;-81
2021/03/08 11:35:35;;;;;;;27.95;24.05;;;9.60;60.30;;;;;;5006820;28;20053;-75
2021/03/08 11:38:12;;;;;;;27.98;24.92;;;9.70;60.40;;;;;;4974516;28;20510;-78
2021/03/08 11:40:44;;;;;;;29.23;24.83;;;9.80;60.40;;;;;;5006543;28;20030;-78
2021/03/08 11:43:10;;;;;;;36.10;24.42;;;9.90;60.50;;;;;;5005889;28;20033;-76
2021/03/08 11:45:37;;;;;;;27.17;24.20;;;9.90;60.40;;;;;;5020747;28;20030;-77
2021/03/08 11:48:03;;;;;;;27.80;24.67;;;10.00;60.40;;;;;;5006207;28;20049;-78
2021/03/08 11:50:32;;;;;;;27.50;24.63;;;10.10;60.50;;;;;;5007019;28;20128;-76
2021/03/08 11:52:58;;;;;;;25.48;22.80;;;10.10;60.30;;;;;;4996643;28;20031;-77
2021/03/08 11:55:25;;;;;;;27.40;24.55;;;10.20;60.40;;;;;;5002088;28;20149;-77
2021/03/08 11:57:51;;;;;;;25.42;22.73;;;10.20;60.20;;;;;;5011076;28;20042;-76
2021/03/08 12:00:21;;;;;;;24.25;21.80;;;10.30;60.30;;;;;;5003415;28;20434;-77
2021/03/08 12:02:48;;;;;;;29.65;23.60;;;10.30;60.10;;;;;;5003532;28;20115;-80
2021/03/08 12:05:15;;;;;;;25.63;22.58;;;10.40;60.20;;;;;;5011768;28;20629;-78
2021/03/08 12:07:42;;;;;;;22.80;20.40;;;10.40;60.00;;;;;;5005419;28;20264;-77
2021/03/08 12:10:11;;;;;;;23.70;21.17;;;10.50;60.10;;;;;;5005859;28;20030;-76
2021/03/08 12:12:37;;;;;;;24.73;19.98;;;10.50;59.90;;;;;;5004593;28;20470;-78
2021/03/08 12:15:07;;;;;;;22.45;20.08;;;10.60;60.00;;;;;;5005435;28;20553;-78
2021/03/08 12:17:37;;;;;;;27.10;19.85;;;10.70;59.90;;;;;;5004190;28;20061;-78
2021/03/08 12:20:09;;;;;;;24.02;20.50;;;10.80;60.00;;;;;;5004563;28;20084;-76
2021/03/08 12:22:37;;;;;;;23.15;20.15;;;10.80;59.90;;;;;;5005355;28;20124;-77
2021/03/08 12:25:04;;;;;;;23.77;20.40;;;10.90;59.90;;;;;;5004508;28;20078;-77
2021/03/08 12:27:30;;;;;;;22.27;20.02;;;11.00;59.80;;;;;;5003651;28;20041;-78
2021/03/08 12:29:56;;;;;;;22.38;20.00;;;11.20;60.00;;;;;;5002366;28;20252;-80
2021/03/08 12:32:22;;;;;;;22.58;20.13;;;11.30;60.00;;;;;;5005076;28;20144;-79
2021/03/08 12:34:48;;;;;;;22.85;19.58;;;11.40;59.90;;;;;;5000595;28;20026;-78
2021/03/08 12:37:17;;;;;;;30.13;19.77;;;11.50;59.50;;;;;;5006863;28;20076;-78
2021/03/08 12:39:43;;;;;;;19.98;17.85;;;11.60;59.00;;;;;;5006222;28;20260;-81
2021/03/08 12:42:09;;;;;;;19.42;17.40;;;11.50;58.40;;;;;;5008710;28;20057;-78
2021/03/08 12:44:35;;;;;;;24.77;18.20;;;11.60;58.20;;;;;;5008882;28;20564;-80
2021/03/08 12:47:01;;;;;;;21.70;17.55;;;11.70;58.00;;;;;;4986420;28;20042;-77
2021/03/08 12:49:27;;;;;;;21.88;18.10;;;11.70;57.60;;;;;;5006471;28;20225;-78
2021/03/08 12:51:53;;;;;;;19.63;17.63;;;11.70;57.40;;;;;;4996935;28;20486;-82
2021/03/08 12:54:19;;;;;;;20.23;17.20;;;11.80;57.30;;;;;;4992666;28;20022;-78
2021/03/08 12:56:45;;;;;;;25.67;17.55;;;11.80;57.10;;;;;;4985288;28;20022;-78